createdAt,value
2023-03-11T00:00:30.017Z,98534.34
2023-03-11T00:03:00.334Z,98544.87
2023-03-11T00:05:31.144Z,98537.97
2023-03-11T00:08:00.013Z,98529.28
2023-03-11T00:10:30.872Z,98530.28
2023-03-11T00:13:00.191Z,98530.66
2023-03-11T00:15:29.112Z,98529.19
2023-03-11T00:17:57.496Z,98545.59
2023-03-11T00:20:31.993Z,98555.66
2023-03-11T00:23:00.727Z,98562.72
2023-03-11T00:25:30.900Z,98565.69
2023-03-11T00:27:59.351Z,98581.00
2023-03-11T00:30:28.125Z,98562.44
2023-03-11T00:32:57.733Z,98574.50
2023-03-11T00:35:28.525Z,98574.03
2023-03-11T00:37:59.826Z,98572.59
2023-03-11T00:40:29.315Z,98538.06
2023-03-11T00:42:57.839Z,98569.06
2023-03-11T00:45:26.251Z,98585.91
2023-03-11T00:47:54.884Z,98584.72
2023-03-11T00:50:26.237Z,98597.75
2023-03-11T00:52:54.346Z,98602.53
2023-03-11T00:55:25.715Z,98605.72
2023-03-11T00:57:55.271Z,98595.22
2023-03-11T01:00:24.892Z,98564.66
2023-03-11T01:03:00.306Z,98602.34
2023-03-11T01:05:30.993Z,98599.47
2023-03-11T01:07:59.269Z,98613.91
2023-03-11T01:10:29.805Z,98570.41
2023-03-11T01:12:57.696Z,98586.66
2023-03-11T01:15:34.604Z,98604.31
2023-03-11T01:18:04.163Z,98550.94
2023-03-11T01:20:32.848Z,98537.56
2023-03-11T01:23:00.277Z,98585.97
2023-03-11T01:25:29.003Z,98589.84
2023-03-11T01:27:59.331Z,98589.03
2023-03-11T01:30:28.105Z,98591.50
2023-03-11T01:32:57.016Z,98587.22
2023-03-11T01:35:27.160Z,98591.50
2023-03-11T01:37:55.446Z,98588.88
2023-03-11T01:40:57.310Z,98589.50
2023-03-11T01:43:39.917Z,98587.34
2023-03-11T01:46:12.571Z,98596.66
2023-03-11T01:48:45.148Z,98557.22
2023-03-11T01:51:13.430Z,98551.00
2023-03-11T01:53:41.642Z,98589.16
2023-03-11T01:56:09.292Z,98592.59
2023-03-11T01:58:41.178Z,98593.56
2023-03-11T02:01:08.951Z,98588.88
2023-03-11T02:03:39.808Z,98596.13
2023-03-11T02:06:11.327Z,98582.19
2023-03-11T02:08:42.075Z,98597.47
2023-03-11T02:11:15.609Z,98589.94
2023-03-11T02:13:45.338Z,98600.91
2023-03-11T02:16:14.328Z,98603.69
2023-03-11T02:18:43.493Z,98569.34
2023-03-11T02:21:32.675Z,98608.31
2023-03-11T02:24:29.706Z,98607.34
2023-03-11T02:27:02.949Z,98606.41
2023-03-11T02:29:33.159Z,98607.97
2023-03-11T02:32:08.880Z,98611.13
2023-03-11T02:34:39.532Z,98613.19
2023-03-11T02:37:10.542Z,98598.06
2023-03-11T02:39:40.541Z,98599.06
2023-03-11T02:42:14.243Z,98602.59
2023-03-11T02:44:46.605Z,98603.69
2023-03-11T02:47:15.367Z,98612.28
2023-03-11T02:49:43.263Z,98620.34
2023-03-11T02:52:12.995Z,98624.62
2023-03-11T02:54:40.546Z,98629.03
2023-03-11T02:57:08.628Z,98634.38
2023-03-11T02:59:36.150Z,98642.78
2023-03-11T03:02:04.103Z,98649.00
2023-03-11T03:04:32.174Z,98644.72
2023-03-11T03:07:00.073Z,98631.53
2023-03-11T03:09:27.654Z,98656.91
2023-03-11T03:11:56.480Z,98655.09
2023-03-11T03:14:24.057Z,98656.28
2023-03-11T03:16:51.537Z,98664.03
2023-03-11T03:19:19.544Z,98669.13
2023-03-11T03:21:47.527Z,98668.53
2023-03-11T03:24:15.700Z,98678.22
2023-03-11T03:26:43.415Z,98674.37
2023-03-11T03:29:11.414Z,98671.91
2023-03-11T03:31:39.717Z,98671.97
2023-03-11T03:34:08.838Z,98679.53
2023-03-11T03:36:37.106Z,98677.25
2023-03-11T03:39:05.683Z,98671.25
2023-03-11T03:41:34.088Z,98677.94
2023-03-11T03:44:02.598Z,98673.03
2023-03-11T03:46:30.215Z,98675.37
2023-03-11T03:48:58.299Z,98655.31
2023-03-11T03:51:26.837Z,98673.09
2023-03-11T03:53:55.749Z,98625.91
2023-03-11T03:56:25.204Z,98673.09
2023-03-11T03:58:53.707Z,98669.50
2023-03-11T04:01:21.845Z,98676.06
2023-03-11T04:03:50.024Z,98676.59
2023-03-11T04:06:25.818Z,98669.88
2023-03-11T04:08:55.058Z,98677.06
2023-03-11T04:11:23.805Z,98684.31
2023-03-11T04:13:51.922Z,98691.53
2023-03-11T04:16:22.536Z,98691.53
2023-03-11T04:18:50.856Z,98702.19
2023-03-11T04:21:18.682Z,98702.03
2023-03-11T04:23:46.686Z,98700.91
2023-03-11T04:26:14.821Z,98658.59
2023-03-11T04:28:42.538Z,98702.22
2023-03-11T04:31:10.418Z,98704.00
2023-03-11T04:33:38.106Z,98717.62
2023-03-11T04:36:08.470Z,98707.16
2023-03-11T04:38:36.695Z,98709.31
2023-03-11T04:41:06.767Z,98677.59
2023-03-11T04:43:35.035Z,98718.00
2023-03-11T04:46:03.152Z,98688.75
2023-03-11T04:48:30.715Z,98730.63
2023-03-11T04:50:58.176Z,98731.97
2023-03-11T04:53:29.286Z,98741.13
2023-03-11T04:55:57.008Z,98742.87
2023-03-11T04:58:24.937Z,98757.00
2023-03-11T05:00:53.341Z,98763.03
2023-03-11T05:03:21.517Z,98747.97
2023-03-11T05:05:49.418Z,98750.56
2023-03-11T05:08:20.146Z,98767.25
2023-03-11T05:10:47.862Z,98748.28
2023-03-11T05:13:15.339Z,98754.34
2023-03-11T05:15:45.663Z,98764.34
2023-03-11T05:18:14.050Z,98752.06
2023-03-11T05:20:42.182Z,98749.97
2023-03-11T05:23:10.342Z,98776.16
2023-03-11T05:25:37.814Z,98756.19
2023-03-11T05:28:05.874Z,98762.22
2023-03-11T05:30:34.624Z,98773.69
2023-03-11T05:33:02.232Z,98725.91
2023-03-11T05:35:29.797Z,98786.31
2023-03-11T05:37:57.678Z,98787.97
2023-03-11T05:40:26.115Z,98789.09
2023-03-11T05:42:53.697Z,98813.31
2023-03-11T05:45:21.419Z,98799.41
2023-03-11T05:47:52.476Z,98821.97
2023-03-11T05:50:20.251Z,98813.97
2023-03-11T05:52:48.487Z,98828.06
2023-03-11T05:55:16.316Z,98809.91
2023-03-11T05:57:44.571Z,98819.37
2023-03-11T06:00:12.933Z,98833.75
2023-03-11T06:02:41.336Z,98850.91
2023-03-11T06:05:13.441Z,98845.53
2023-03-11T06:07:43.648Z,98860.50
2023-03-11T06:10:12.398Z,98870.41
2023-03-11T06:12:40.335Z,98882.72
2023-03-11T06:15:08.858Z,98884.62
2023-03-11T06:17:36.927Z,98898.38
2023-03-11T06:20:06.177Z,98914.62
2023-03-11T06:22:34.530Z,98918.81
2023-03-11T06:25:02.550Z,98911.06
2023-03-11T06:27:31.429Z,98915.25
2023-03-11T06:29:59.211Z,98912.50
2023-03-11T06:32:29.633Z,98929.66
2023-03-11T06:34:57.390Z,98946.75
2023-03-11T06:37:25.694Z,98943.00
2023-03-11T06:39:54.604Z,98906.47
2023-03-11T06:42:24.054Z,98963.69
2023-03-11T06:44:52.202Z,98900.94
2023-03-11T06:47:20.743Z,98956.31
2023-03-11T06:49:50.647Z,98952.59
2023-03-11T06:52:18.555Z,98949.00
2023-03-11T06:54:46.655Z,98951.03
2023-03-11T06:57:16.836Z,98963.78
2023-03-11T06:59:45.827Z,98957.37
2023-03-11T07:02:15.043Z,98945.06
2023-03-11T07:04:42.889Z,98945.94
2023-03-11T07:07:10.324Z,98886.34
2023-03-11T07:09:38.273Z,98948.50
2023-03-11T07:12:06.918Z,98921.09
2023-03-11T07:14:34.931Z,98951.91
2023-03-11T07:17:02.792Z,98951.06
2023-03-11T07:19:31.494Z,98963.00
2023-03-11T07:21:58.888Z,98963.38
2023-03-11T07:24:26.656Z,98973.16
2023-03-11T07:26:54.092Z,98943.16
2023-03-11T07:29:21.546Z,98973.38
2023-03-11T07:31:49.533Z,98975.84
2023-03-11T07:34:17.664Z,98961.22
2023-03-11T07:36:45.165Z,98970.25
2023-03-11T07:39:16.297Z,98975.47
2023-03-11T07:41:44.899Z,98954.56
2023-03-11T07:44:14.186Z,98928.03
2023-03-11T07:46:42.291Z,98947.03
2023-03-11T07:49:10.338Z,98945.38
2023-03-11T07:51:42.470Z,98944.28
2023-03-11T07:54:12.088Z,98969.81
2023-03-11T07:56:40.119Z,98985.47
2023-03-11T07:59:07.986Z,98987.69
2023-03-11T08:01:41.123Z,98941.66
2023-03-11T08:04:14.467Z,98951.81
2023-03-11T08:06:43.771Z,98956.50
2023-03-11T08:09:12.262Z,98977.09
2023-03-11T08:11:39.808Z,99005.00
2023-03-11T08:14:07.643Z,98998.53
2023-03-11T08:16:35.444Z,98985.47
2023-03-11T08:19:03.194Z,98983.22
2023-03-11T08:21:32.230Z,98968.97
2023-03-11T08:24:01.714Z,99003.97
2023-03-11T08:26:30.250Z,98999.03
2023-03-11T08:28:59.137Z,99005.56
2023-03-11T08:31:29.781Z,99023.84
2023-03-11T08:34:05.613Z,99011.28
2023-03-11T08:36:34.155Z,99006.59
2023-03-11T08:39:02.035Z,99017.56
2023-03-11T08:41:29.763Z,98954.84
2023-03-11T08:43:57.518Z,99019.72
2023-03-11T08:46:36.940Z,99028.00
2023-03-11T08:49:06.024Z,99030.47
2023-03-11T08:51:34.499Z,99010.37
2023-03-11T08:54:03.433Z,98987.78
2023-03-11T08:56:31.400Z,98988.78
2023-03-11T08:58:59.473Z,99045.19
2023-03-11T09:01:26.973Z,99035.41
2023-03-11T09:03:54.672Z,99060.28
2023-03-11T09:06:22.525Z,99060.50
2023-03-11T09:08:50.551Z,99042.41
2023-03-11T09:11:19.415Z,98979.25
2023-03-11T09:13:46.967Z,99045.34
2023-03-11T09:16:17.039Z,99062.16
2023-03-11T09:18:45.232Z,99075.38
2023-03-11T09:21:13.352Z,99069.63
2023-03-11T09:23:43.944Z,99076.78
2023-03-11T09:26:12.916Z,99100.22
2023-03-11T09:28:41.744Z,99097.78
2023-03-11T09:31:09.636Z,99050.56
2023-03-11T09:33:40.310Z,99080.06
2023-03-11T09:36:08.801Z,99095.97
2023-03-11T09:38:36.349Z,99088.28
2023-03-11T09:41:06.831Z,99093.87
2023-03-11T09:44:00.541Z,99043.72
2023-03-11T09:47:04.096Z,99089.13
2023-03-11T09:49:59.241Z,99112.94
2023-03-11T09:52:56.606Z,99111.06
2023-03-11T09:55:27.303Z,99098.81
2023-03-11T09:57:57.755Z,99106.19
2023-03-11T10:00:25.972Z,99104.25
2023-03-11T10:02:53.934Z,99093.37
2023-03-11T10:05:27.487Z,99047.38
2023-03-11T10:08:44.307Z,99083.75
2023-03-11T10:11:34.913Z,99106.50
2023-03-11T10:14:03.030Z,99116.31
2023-03-11T10:16:41.561Z,99104.03
2023-03-11T10:19:44.431Z,99102.94
2023-03-11T10:22:44.127Z,99098.19
2023-03-11T10:25:39.543Z,99100.94
2023-03-11T10:28:16.635Z,99096.28
2023-03-11T10:30:52.422Z,99093.16
2023-03-11T10:34:10.373Z,99141.69
2023-03-11T10:37:03.984Z,99137.06
2023-03-11T10:39:33.210Z,99120.22
2023-03-11T10:42:04.427Z,99149.13
2023-03-11T10:44:35.863Z,99141.03
2023-03-11T10:47:04.444Z,99143.69
2023-03-11T10:49:32.455Z,99127.62
2023-03-11T10:52:03.372Z,99091.03
2023-03-11T10:54:34.915Z,99129.84
2023-03-11T10:57:05.524Z,99087.28
2023-03-11T10:59:45.276Z,99144.53
2023-03-11T11:02:19.523Z,99149.41
2023-03-11T11:04:47.442Z,99156.44
2023-03-11T11:07:36.511Z,99148.91
2023-03-11T11:10:21.370Z,99155.47
2023-03-11T11:12:54.269Z,99159.41
2023-03-11T11:15:33.644Z,99147.72
2023-03-11T11:18:23.040Z,99146.16
2023-03-11T11:21:02.177Z,99130.75
2023-03-11T11:23:32.392Z,99138.78
2023-03-11T11:26:07.369Z,99095.94
2023-03-11T11:28:35.244Z,99091.72
2023-03-11T11:31:06.228Z,99129.94
2023-03-11T11:33:57.299Z,99137.34
2023-03-11T11:36:31.218Z,99132.19
2023-03-11T11:39:00.580Z,99072.88
2023-03-11T11:41:32.027Z,99105.72
2023-03-11T11:44:02.937Z,99155.06
2023-03-11T11:46:37.548Z,99142.22
2023-03-11T11:49:25.767Z,99141.16
2023-03-11T11:52:11.443Z,99150.41
2023-03-11T11:54:58.945Z,99143.91
2023-03-11T11:57:27.186Z,99103.31
2023-03-11T11:59:57.303Z,99134.28
2023-03-11T12:02:34.615Z,99131.19
2023-03-11T12:05:08.513Z,99147.56
2023-03-11T12:07:45.156Z,99093.00
2023-03-11T12:10:37.947Z,99139.13
2023-03-11T12:13:23.876Z,99136.19
2023-03-11T12:16:16.046Z,99125.16
2023-03-11T12:18:57.075Z,99138.63
2023-03-11T12:22:02.462Z,99095.66
2023-03-11T12:24:32.908Z,99135.03
2023-03-11T12:27:08.788Z,99148.84
2023-03-11T12:29:43.247Z,99137.16
2023-03-11T12:32:25.088Z,99096.81
2023-03-11T12:34:53.353Z,99160.63
2023-03-11T12:37:23.436Z,99154.56
2023-03-11T12:39:51.036Z,99154.69
2023-03-11T12:42:21.996Z,99152.09
2023-03-11T12:44:50.442Z,99168.03
2023-03-11T12:47:20.880Z,99163.25
2023-03-11T12:49:52.057Z,99165.53
2023-03-11T12:52:23.356Z,99149.13
2023-03-11T12:54:56.712Z,99160.47
2023-03-11T12:57:46.072Z,99156.19
2023-03-11T13:00:38.523Z,99166.03
2023-03-11T13:03:13.074Z,99150.47
2023-03-11T13:06:19.548Z,99161.44
2023-03-11T13:08:56.830Z,99150.78
2023-03-11T13:11:33.341Z,99154.94
2023-03-11T13:14:35.894Z,99167.41
2023-03-11T13:17:31.262Z,99158.12
2023-03-11T13:19:59.316Z,99177.59
2023-03-11T13:22:52.093Z,99160.22
2023-03-11T13:25:38.405Z,99183.56
2023-03-11T13:28:24.171Z,99173.72
2023-03-11T13:31:05.196Z,99180.31
2023-03-11T13:33:52.260Z,99192.63
2023-03-11T13:36:57.403Z,99158.81
2023-03-11T13:39:47.485Z,99215.59
2023-03-11T13:42:31.328Z,99206.75
2023-03-11T13:44:59.924Z,99213.25
2023-03-11T13:47:30.356Z,99222.66
2023-03-11T13:50:07.580Z,99202.13
2023-03-11T13:52:46.732Z,99218.16
2023-03-11T13:55:40.305Z,99218.38
2023-03-11T13:58:25.691Z,99226.91
2023-03-11T14:00:55.657Z,99210.44
2023-03-11T14:03:25.557Z,99249.56
2023-03-11T14:06:00.881Z,99246.41
2023-03-11T14:08:31.866Z,99280.81
2023-03-11T14:11:01.717Z,99259.09
2023-03-11T14:13:38.398Z,99254.16
2023-03-11T14:16:35.996Z,99273.59
2023-03-11T14:19:15.697Z,99266.75
2023-03-11T14:21:44.887Z,99275.94
2023-03-11T14:24:31.983Z,99283.34
2023-03-11T14:27:02.690Z,99231.72
2023-03-11T14:29:36.677Z,99283.44
2023-03-11T14:32:23.970Z,99260.63
2023-03-11T14:34:51.760Z,99278.94
2023-03-11T14:37:36.012Z,99283.13
2023-03-11T14:40:21.639Z,99288.16
2023-03-11T14:42:53.851Z,99283.13
2023-03-11T14:45:24.497Z,99300.94
2023-03-11T14:47:56.682Z,99310.84
2023-03-11T14:50:27.159Z,99318.03
2023-03-11T14:53:02.412Z,99326.22
2023-03-11T14:55:57.771Z,99340.06
2023-03-11T14:58:36.166Z,99323.22
2023-03-11T15:01:13.419Z,99318.34
2023-03-11T15:03:53.660Z,99317.22
2023-03-11T15:06:30.140Z,99331.00
2023-03-11T15:09:10.169Z,99336.44
2023-03-11T15:11:52.283Z,99333.19
2023-03-11T15:14:50.134Z,99328.50
2023-03-11T15:17:38.489Z,99321.91
2023-03-11T15:20:31.247Z,99328.28
2023-03-11T15:23:04.638Z,99338.37
2023-03-11T15:25:36.067Z,99279.72
2023-03-11T15:28:33.680Z,99351.84
2023-03-11T15:31:19.899Z,99361.81
2023-03-11T15:33:49.188Z,99362.06
2023-03-11T15:36:31.938Z,99378.44
2023-03-11T15:39:08.826Z,99372.38
2023-03-11T15:41:36.563Z,99378.56
2023-03-11T15:44:07.563Z,99362.41
2023-03-11T15:46:35.090Z,99398.56
2023-03-11T15:49:02.601Z,99382.28
2023-03-11T15:51:30.447Z,99386.47
2023-03-11T15:53:58.148Z,99398.19
2023-03-11T15:56:25.987Z,99421.19
2023-03-11T15:58:53.819Z,99411.03
2023-03-11T16:01:28.479Z,99367.66
2023-03-11T16:03:56.639Z,99417.66
2023-03-11T16:06:24.111Z,99408.16
2023-03-11T16:08:51.563Z,99428.00
2023-03-11T16:11:19.791Z,99395.84
2023-03-11T16:13:47.847Z,99439.44
2023-03-11T16:16:17.428Z,99440.50
2023-03-11T16:18:45.381Z,99443.56
2023-03-11T16:21:17.136Z,99443.53
2023-03-11T16:23:52.005Z,99442.19
2023-03-11T16:26:22.434Z,99454.97
2023-03-11T16:28:50.477Z,99443.44
2023-03-11T16:31:18.149Z,99450.16
2023-03-11T16:33:45.905Z,99467.34
2023-03-11T16:36:13.827Z,99458.66
2023-03-11T16:38:47.421Z,99447.75
2023-03-11T16:41:17.151Z,99469.63
2023-03-11T16:43:45.492Z,99477.88
2023-03-11T16:46:13.190Z,99488.31
2023-03-11T16:48:41.065Z,99487.97
2023-03-11T16:51:08.811Z,99434.59
2023-03-11T16:53:36.534Z,99477.44
2023-03-11T16:56:05.555Z,99478.34
2023-03-11T16:58:33.907Z,99482.31
2023-03-11T17:01:01.568Z,99503.00
2023-03-11T17:03:41.026Z,99509.22
2023-03-11T17:06:10.725Z,99515.91
2023-03-11T17:08:38.779Z,99465.19
2023-03-11T17:11:13.643Z,99547.34
2023-03-11T17:13:41.501Z,99531.13
2023-03-11T17:16:09.032Z,99539.72
2023-03-11T17:18:37.039Z,99550.16
2023-03-11T17:21:10.611Z,99560.25
2023-03-11T17:23:39.547Z,99563.84
2023-03-11T17:26:10.051Z,99560.47
2023-03-11T17:28:38.343Z,99560.72
2023-03-11T17:31:10.919Z,99566.44
2023-03-11T17:33:38.995Z,99580.69
2023-03-11T17:36:09.129Z,99584.50
2023-03-11T17:38:36.722Z,99586.34
2023-03-11T17:41:13.424Z,99589.37
2023-03-11T17:43:42.185Z,99560.38
2023-03-11T17:46:14.468Z,99605.78
2023-03-11T17:48:47.148Z,99615.75
2023-03-11T17:51:18.274Z,99570.03
2023-03-11T17:53:47.812Z,99624.28
2023-03-11T17:56:18.522Z,99625.88
2023-03-11T17:58:46.967Z,99620.09
2023-03-11T18:01:21.665Z,99623.53
2023-03-11T18:03:50.116Z,99627.34
2023-03-11T18:06:19.504Z,99632.78
2023-03-11T18:08:48.145Z,99639.56
2023-03-11T18:11:19.341Z,99647.69
2023-03-11T18:13:47.863Z,99597.69
2023-03-11T18:16:24.364Z,99651.03
2023-03-11T18:18:54.463Z,99675.06
2023-03-11T18:21:27.769Z,99634.59
2023-03-11T18:23:57.933Z,99669.03
2023-03-11T18:26:27.661Z,99677.53
2023-03-11T18:28:57.402Z,99680.37
2023-03-11T18:31:26.425Z,99680.13
2023-03-11T18:34:00.139Z,99691.72
2023-03-11T18:36:33.566Z,99714.22
2023-03-11T18:39:02.042Z,99714.69
2023-03-11T18:41:32.912Z,99713.16
2023-03-11T18:44:01.319Z,99736.00
2023-03-11T18:46:33.613Z,99719.91
2023-03-11T18:49:03.893Z,99740.50
2023-03-11T18:51:32.751Z,99741.94
2023-03-11T18:54:02.030Z,99739.78
2023-03-11T18:56:32.936Z,99747.38
2023-03-11T18:59:00.970Z,99738.22
2023-03-11T19:01:29.240Z,99742.13
2023-03-11T19:03:59.458Z,99723.41
2023-03-11T19:06:29.342Z,99732.41
2023-03-11T19:09:00.729Z,99742.91
2023-03-11T19:11:28.483Z,99747.50
2023-03-11T19:13:56.023Z,99748.19
2023-03-11T19:16:26.220Z,99745.47
2023-03-11T19:18:55.274Z,99759.81
2023-03-11T19:21:23.550Z,99773.16
2023-03-11T19:23:55.067Z,99773.03
2023-03-11T19:26:41.534Z,99765.00
2023-03-11T19:29:13.557Z,99785.63
2023-03-11T19:31:43.407Z,99782.41
2023-03-11T19:34:11.413Z,99785.94
2023-03-11T19:36:39.526Z,99795.16
2023-03-11T19:39:08.214Z,99805.94
2023-03-11T19:41:36.067Z,99826.37
2023-03-11T19:44:04.361Z,99790.25
2023-03-11T19:46:34.750Z,99815.56
2023-03-11T19:49:03.493Z,99773.13
2023-03-11T19:51:46.334Z,99837.88
2023-03-11T19:54:16.733Z,99831.25
2023-03-11T19:56:45.812Z,99838.66
2023-03-11T19:59:13.543Z,99822.22
2023-03-11T20:01:42.389Z,99823.19
2023-03-11T20:04:11.148Z,99827.00
2023-03-11T20:06:38.998Z,99831.19
2023-03-11T20:09:07.001Z,99833.91
2023-03-11T20:11:40.911Z,99857.81
2023-03-11T20:14:10.401Z,99854.41
2023-03-11T20:16:39.133Z,99855.13
2023-03-11T20:19:06.856Z,99852.44
2023-03-11T20:21:38.997Z,99873.94
2023-03-11T20:24:08.577Z,99872.59
2023-03-11T20:26:36.949Z,99878.00
2023-03-11T20:29:05.940Z,99878.94
2023-03-11T20:31:34.820Z,99863.25
2023-03-11T20:34:03.427Z,99776.38
2023-03-11T20:36:33.269Z,99872.72
2023-03-11T20:39:02.317Z,99823.81
2023-03-11T20:41:35.753Z,99875.53
2023-03-11T20:44:05.770Z,99875.00
2023-03-11T20:46:34.058Z,99884.78
2023-03-11T20:49:03.062Z,99887.37
2023-03-11T20:51:32.523Z,99896.00
2023-03-11T20:54:00.341Z,99900.28
2023-03-11T20:56:28.583Z,99911.38
2023-03-11T20:58:59.169Z,99847.87
2023-03-11T21:01:30.105Z,99903.69
2023-03-11T21:04:01.433Z,99906.50
2023-03-11T21:06:32.504Z,99858.47
2023-03-11T21:09:04.871Z,99901.47
2023-03-11T21:11:33.499Z,99922.63
2023-03-11T21:14:01.887Z,99912.56
2023-03-11T21:16:29.774Z,99857.91
2023-03-11T21:18:57.981Z,99915.16
2023-03-11T21:21:25.933Z,99928.97
2023-03-11T21:23:54.203Z,99932.09
2023-03-11T21:26:21.750Z,99919.72
2023-03-11T21:28:49.503Z,99920.69
2023-03-11T21:31:20.550Z,99920.03
2023-03-11T21:33:48.477Z,99923.47
2023-03-11T21:36:17.128Z,99914.12
2023-03-11T21:38:46.919Z,99916.91
2023-03-11T21:41:20.432Z,99919.78
2023-03-11T21:43:48.575Z,99905.78
2023-03-11T21:46:18.950Z,99923.03
2023-03-11T21:48:47.498Z,99919.19
2023-03-11T21:51:23.912Z,99928.81
2023-03-11T21:53:51.504Z,99932.34
2023-03-11T21:56:19.587Z,99881.16
2023-03-11T21:58:47.652Z,99935.53
2023-03-11T22:01:15.931Z,99951.81
2023-03-11T22:03:44.182Z,99934.88
2023-03-11T22:06:12.376Z,99948.31
2023-03-11T22:08:40.354Z,99949.94
2023-03-11T22:11:10.218Z,99956.56
2023-03-11T22:13:37.797Z,99956.09
2023-03-11T22:16:06.868Z,99957.00
2023-03-11T22:18:34.726Z,99960.09
2023-03-11T22:21:02.852Z,99969.00
2023-03-11T22:23:30.723Z,99959.66
2023-03-11T22:25:58.671Z,99954.47
2023-03-11T22:28:26.227Z,99927.19
2023-03-11T22:30:53.851Z,99951.41
2023-03-11T22:33:21.582Z,99979.81
2023-03-11T22:35:59.525Z,99985.22
2023-03-11T22:38:27.652Z,99990.38
2023-03-11T22:40:55.087Z,99999.41
2023-03-11T22:43:22.783Z,99930.47
2023-03-11T22:45:50.547Z,99939.34
2023-03-11T22:48:18.053Z,99993.37
2023-03-11T22:50:45.597Z,99997.84
2023-03-11T22:53:15.140Z,99999.69
2023-03-11T22:55:44.038Z,99995.31
2023-03-11T22:58:12.301Z,99987.84
2023-03-11T23:00:40.654Z,100002.66
2023-03-11T23:03:08.206Z,100002.94
2023-03-11T23:05:41.836Z,100007.28
2023-03-11T23:08:13.537Z,100014.34
2023-03-11T23:10:42.364Z,99968.91
2023-03-11T23:13:10.957Z,100032.28
2023-03-11T23:15:41.394Z,100026.75
2023-03-11T23:18:09.263Z,100036.94
2023-03-11T23:20:39.894Z,99984.28
2023-03-11T23:23:08.900Z,100038.22
2023-03-11T23:25:36.777Z,100004.91
2023-03-11T23:28:05.749Z,100042.78
2023-03-11T23:30:33.434Z,100051.38
2023-03-11T23:33:02.986Z,100045.19
2023-03-11T23:35:31.407Z,100038.41
2023-03-11T23:38:00.179Z,100041.84
2023-03-11T23:40:28.593Z,100063.59
2023-03-11T23:42:56.162Z,100055.16
2023-03-11T23:45:23.930Z,100076.84
2023-03-11T23:47:51.708Z,100090.53
2023-03-11T23:50:19.463Z,100090.53
2023-03-11T23:52:46.973Z,100097.47
2023-03-11T23:55:15.156Z,100087.75
2023-03-11T23:57:42.608Z,100083.69
